Time;durP1;ratioP1;P1;durP2;ratioP2;P2;SDS_P1;SDS_P2;PMS_P1;PMS_P2;Temp;Humidity;BMP_temperature;BMP_pressure;BME280_temperature;BME280_humidity;BME280_pressure;Samples;Min_cycle;Max_cycle;Signal;HPM_P1;HPM_P2
2020/12/11 00:01:19;;;;;;;11.40;7.07;;;;;7.60;99964.00;;;;5103810;28;20198;-76
2020/12/11 00:03:46;;;;;;;11.25;6.72;;;;;7.60;99953.00;;;;5090289;28;20222;-76
2020/12/11 00:06:20;;;;;;;9.65;6.05;;;;;7.60;99950.00;;;;5091882;28;20679;-76
2020/12/11 00:08:48;;;;;;;11.90;6.70;;;;;7.60;99946.00;;;;5070527;28;20709;-76
2020/12/11 00:11:14;;;;;;;13.38;8.35;;;;;7.60;99940.00;;;;5095815;28;20197;-76
2020/12/11 00:13:42;;;;;;;9.48;5.15;;;;;7.60;99939.00;;;;5111186;28;20256;-76
2020/12/11 00:16:09;;;;;;;13.43;6.63;;;;;7.50;99936.00;;;;5096659;28;20573;-76
2020/12/11 00:18:36;;;;;;;10.55;6.97;;;;;7.50;99937.00;;;;5110658;28;20209;-76
2020/12/11 00:21:03;;;;;;;11.05;6.55;;;;;7.50;99928.00;;;;5093970;28;20194;-76
2020/12/11 00:23:30;;;;;;;9.27;6.05;;;;;7.50;99916.00;;;;5090490;28;20202;-76
2020/12/11 00:25:58;;;;;;;10.35;6.25;;;;;7.50;99922.00;;;;5106271;28;20205;-76
2020/12/11 00:28:27;;;;;;;10.25;5.82;;;;;7.40;99915.00;;;;5107220;28;20292;-76
2020/12/11 00:30:54;;;;;;;11.10;5.68;;;;;7.40;99913.00;;;;5107372;28;20222;-75
2020/12/11 00:33:21;;;;;;;8.82;5.88;;;;;7.40;99911.00;;;;5103422;28;20221;-76
2020/12/11 00:35:48;;;;;;;10.57;6.18;;;;;7.40;99905.00;;;;5109885;28;20663;-76
2020/12/11 00:38:15;;;;;;;10.68;5.93;;;;;7.40;99900.00;;;;5097119;28;20194;-76
2020/12/11 00:40:41;;;;;;;10.75;5.90;;;;;7.30;99893.00;;;;5105016;28;20202;-76
2020/12/11 00:43:08;;;;;;;10.38;6.22;;;;;7.30;99888.00;;;;5108871;28;20704;-76
2020/12/11 00:45:36;;;;;;;9.93;5.90;;;;;7.30;99882.00;;;;5094437;28;20198;-76
2020/12/11 00:48:03;;;;;;;8.80;5.68;;;;;7.30;99880.00;;;;5089796;28;20205;-76
2020/12/11 00:50:30;;;;;;;11.25;5.30;;;;;7.30;99880.00;;;;5099587;28;20195;-76
2020/12/11 00:52:57;;;;;;;9.82;6.00;;;;;7.30;99876.00;;;;5104620;28;20598;-77
2020/12/11 00:55:23;;;;;;;10.45;5.70;;;;;7.30;99876.00;;;;5100564;28;20210;-76
2020/12/11 00:57:50;;;;;;;10.35;6.25;;;;;7.30;99876.00;;;;5100718;28;20226;-76
2020/12/11 01:00:18;;;;;;;10.60;6.28;;;;;7.30;99869.00;;;;5096100;28;20604;-76
2020/12/11 01:02:45;;;;;;;10.85;5.72;;;;;7.30;99866.00;;;;5102428;28;20353;-76
2020/12/11 01:05:13;;;;;;;8.73;5.35;;;;;7.30;99862.00;;;;5094740;28;20604;-76
2020/12/11 01:07:39;;;;;;;11.07;6.28;;;;;7.30;99855.00;;;;5089873;28;20682;-75
2020/12/11 01:10:06;;;;;;;8.43;5.40;;;;;7.30;99856.00;;;;5096114;28;20209;-76
2020/12/11 01:12:33;;;;;;;14.00;6.53;;;;;7.30;99841.00;;;;5091539;28;20198;-76
2020/12/11 01:14:59;;;;;;;8.77;5.40;;;;;7.30;99841.00;;;;5089872;28;20556;-76
2020/12/11 01:17:26;;;;;;;10.38;6.18;;;;;7.30;99835.00;;;;5092286;28;20191;-75
2020/12/11 01:19:53;;;;;;;11.52;6.93;;;;;7.30;99832.00;;;;5092626;28;20570;-76
2020/12/11 01:22:20;;;;;;;11.50;6.43;;;;;7.30;99825.00;;;;5092386;28;20201;-76
2020/12/11 01:24:47;;;;;;;8.82;5.75;;;;;7.30;99813.00;;;;5090441;28;20201;-76
2020/12/11 01:27:14;;;;;;;11.20;6.63;;;;;7.30;99805.00;;;;5098886;28;20223;-76
2020/12/11 01:29:41;;;;;;;6.65;4.88;;;;;7.30;99802.00;;;;5095368;28;20194;-76
2020/12/11 01:32:07;;;;;;;7.72;5.40;;;;;7.30;99804.00;;;;5098914;28;20190;-76
2020/12/11 01:34:34;;;;;;;9.30;5.47;;;;;7.30;99799.00;;;;5109517;28;20962;-76
2020/12/11 01:37:04;;;;;;;12.00;6.13;;;;;7.20;99787.00;;;;5099774;28;20199;-76
2020/12/11 01:39:32;;;;;;;11.32;6.57;;;;;7.20;99784.00;;;;5090099;28;20210;-76
2020/12/11 01:42:00;;;;;;;10.55;6.68;;;;;7.20;99779.00;;;;5091830;28;20251;-76
2020/12/11 01:44:27;;;;;;;7.72;5.22;;;;;7.20;99771.00;;;;5096650;28;20191;-76
2020/12/11 01:46:57;;;;;;;10.93;7.28;;;;;7.20;99764.00;;;;5088285;28;20190;-76
2020/12/11 01:49:24;;;;;;;10.85;6.30;;;;;7.20;99751.00;;;;5087093;28;20202;-76
2020/12/11 01:51:51;;;;;;;11.70;6.53;;;;;7.20;99752.00;;;;5091096;28;20213;-76
2020/12/11 01:54:18;;;;;;;8.95;5.90;;;;;7.20;99749.00;;;;5078049;28;20811;-76
2020/12/11 01:56:51;;;;;;;8.60;5.75;;;;;7.20;99739.00;;;;5090154;28;20199;-76
2020/12/11 01:59:26;;;;;;;9.77;6.07;;;;;7.10;99739.00;;;;5082942;28;20241;-76
2020/12/11 02:01:57;;;;;;;10.00;6.45;;;;;7.10;99728.00;;;;5092835;28;20189;-75
2020/12/11 02:04:24;;;;;;;9.80;6.53;;;;;7.10;99717.00;;;;5095016;28;20569;-75
2020/12/11 02:06:52;;;;;;;11.45;6.18;;;;;7.10;99710.00;;;;5098567;28;20202;-76
2020/12/11 02:09:20;;;;;;;10.27;6.25;;;;;7.10;99705.00;;;;5096014;28;20664;-76
2020/12/11 02:11:51;;;;;;;9.68;6.35;;;;;7.00;99712.00;;;;5094955;28;20201;-76
2020/12/11 02:14:18;;;;;;;10.25;6.55;;;;;7.00;99709.00;;;;5109316;28;20259;-76
2020/12/11 02:16:45;;;;;;;11.40;6.18;;;;;7.00;99712.00;;;;5103066;28;20201;-76
2020/12/11 02:19:12;;;;;;;9.27;6.00;;;;;7.00;99719.00;;;;5096436;28;20683;-76
2020/12/11 02:21:40;;;;;;;10.07;6.22;;;;;7.00;99717.00;;;;5092393;28;20695;-76
2020/12/11 02:24:06;;;;;;;10.73;6.68;;;;;6.90;99717.00;;;;5105000;28;20210;-76
2020/12/11 02:26:34;;;;;;;8.07;5.53;;;;;6.90;99714.00;;;;5089443;28;20583;-75
2020/12/11 02:29:00;;;;;;;9.07;5.90;;;;;6.90;99715.00;;;;5089270;28;20201;-76
2020/12/11 02:31:27;;;;;;;9.25;5.63;;;;;6.90;99713.00;;;;5105340;28;20786;-76
2020/12/11 02:33:54;;;;;;;9.00;5.40;;;;;6.80;99716.00;;;;5095057;28;20214;-75
2020/12/11 02:36:21;;;;;;;10.55;6.90;;;;;6.80;99716.00;;;;5087675;28;20221;-76
2020/12/11 02:38:49;;;;;;;10.27;6.45;;;;;6.80;99712.00;;;;5096979;28;20322;-75
2020/12/11 02:41:15;;;;;;;11.52;6.28;;;;;6.80;99719.00;;;;5093957;28;20757;-75
2020/12/11 02:43:43;;;;;;;10.30;6.35;;;;;6.80;99716.00;;;;5078734;28;20293;-75
2020/12/11 02:46:09;;;;;;;10.90;6.53;;;;;6.80;99713.00;;;;5078439;28;20240;-76
2020/12/11 02:48:36;;;;;;;10.02;6.03;;;;;6.70;99703.00;;;;5095765;28;20208;-75
2020/12/11 02:51:03;;;;;;;10.32;6.35;;;;;6.70;99710.00;;;;5099753;28;20191;-76
2020/12/11 02:53:29;;;;;;;10.07;6.32;;;;;6.70;99705.00;;;;5088286;28;20691;-76
2020/12/11 02:55:59;;;;;;;11.30;6.82;;;;;6.70;99699.00;;;;5103099;28;20205;-76
2020/12/11 02:58:26;;;;;;;9.90;6.13;;;;;6.70;99687.00;;;;5095145;28;20310;-76
2020/12/11 03:00:52;;;;;;;11.80;7.07;;;;;6.60;99698.00;;;;5090271;28;20197;-76
2020/12/11 03:03:19;;;;;;;9.82;6.38;;;;;6.60;99692.00;;;;5103652;28;20714;-76
2020/12/11 03:05:46;;;;;;;11.05;6.05;;;;;6.60;99690.00;;;;5098462;28;20590;-76
2020/12/11 03:08:12;;;;;;;10.85;6.57;;;;;6.60;99684.00;;;;5091680;28;20194;-76
2020/12/11 03:10:39;;;;;;;11.82;6.82;;;;;6.60;99679.00;;;;5107566;28;20197;-76
2020/12/11 03:13:07;;;;;;;11.85;5.65;;;;;6.60;99684.00;;;;5104286;28;20217;-76
2020/12/11 03:15:34;;;;;;;12.88;6.68;;;;;6.60;99677.00;;;;5107028;28;20193;-76
2020/12/11 03:18:00;;;;;;;11.10;6.45;;;;;6.60;99673.00;;;;5091727;28;20205;-76
2020/12/11 03:20:27;;;;;;;11.50;6.88;;;;;6.50;99663.00;;;;5094567;28;20197;-77
2020/12/11 03:22:56;;;;;;;10.15;6.00;;;;;6.50;99660.00;;;;5106681;28;20186;-76
2020/12/11 03:25:23;;;;;;;9.48;6.18;;;;;6.50;99652.00;;;;5097241;28;20195;-76
2020/12/11 03:27:50;;;;;;;12.68;6.88;;;;;6.50;99652.00;;;;5100012;28;20247;-76
2020/12/11 03:30:18;;;;;;;9.88;6.20;;;;;6.50;99639.00;;;;5095696;28;20190;-76
2020/12/11 03:32:44;;;;;;;10.93;6.85;;;;;6.50;99635.00;;;;5099761;28;20206;-76
2020/12/11 03:35:11;;;;;;;9.25;5.78;;;;;6.50;99628.00;;;;5091652;28;20212;-77
2020/12/11 03:37:38;;;;;;;9.40;5.82;;;;;6.50;99628.00;;;;5090886;28;20679;-77
2020/12/11 03:40:05;;;;;;;12.07;7.35;;;;;6.50;99618.00;;;;5100584;28;20240;-76
2020/12/11 03:42:32;;;;;;;12.40;7.43;;;;;6.50;99598.00;;;;5099002;28;20201;-76
2020/12/11 03:44:59;;;;;;;10.85;6.35;;;;;6.50;99599.00;;;;5091396;28;20210;-76
2020/12/11 03:47:30;;;;;;;15.82;8.00;;;;;6.50;99601.00;;;;5098039;28;20678;-77
2020/12/11 03:49:57;;;;;;;8.82;6.15;;;;;6.50;99602.00;;;;5111846;28;20193;-77
2020/12/11 03:52:28;;;;;;;10.82;6.43;;;;;6.50;99591.00;;;;5104359;28;20542;-77
2020/12/11 03:54:55;;;;;;;10.18;6.53;;;;;6.50;99581.00;;;;5105531;28;20250;-77
2020/12/11 03:57:22;;;;;;;11.02;6.65;;;;;6.50;99577.00;;;;5092550;28;20201;-77
2020/12/11 03:59:48;;;;;;;12.55;7.15;;;;;6.50;99567.00;;;;5090598;28;20202;-77
2020/12/11 04:02:15;;;;;;;11.02;6.78;;;;;6.50;99550.00;;;;5092446;28;20205;-77
2020/12/11 04:04:43;;;;;;;10.77;6.40;;;;;6.50;99562.00;;;;5096977;28;20197;-77
2020/12/11 04:07:10;;;;;;;11.43;7.30;;;;;6.60;99553.00;;;;5107011;28;20193;-77
2020/12/11 04:09:37;;;;;;;10.98;6.70;;;;;6.60;99553.00;;;;5104601;28;20202;-77
2020/12/11 04:12:04;;;;;;;10.93;6.88;;;;;6.60;99552.00;;;;5108783;28;20574;-77
2020/12/11 04:14:31;;;;;;;9.98;6.55;;;;;6.70;99550.00;;;;5091381;28;20592;-77
2020/12/11 04:16:59;;;;;;;11.48;6.85;;;;;6.70;99544.00;;;;5109399;28;20206;-77
2020/12/11 04:19:26;;;;;;;9.82;6.22;;;;;6.70;99534.00;;;;5079343;28;20233;-77
2020/12/11 04:21:54;;;;;;;11.07;6.00;;;;;6.80;99526.00;;;;5090486;28;20201;-77
2020/12/11 04:24:23;;;;;;;10.68;5.65;;;;;6.80;99526.00;;;;5092827;28;20205;-77
2020/12/11 04:26:50;;;;;;;12.63;7.13;;;;;6.80;99531.00;;;;5073027;28;20241;-76
2020/12/11 04:29:16;;;;;;;11.25;6.05;;;;;6.80;99524.00;;;;5110991;28;20198;-76
2020/12/11 04:31:43;;;;;;;10.70;6.35;;;;;6.80;99518.00;;;;5108968;28;20599;-77
2020/12/11 04:34:10;;;;;;;9.68;5.90;;;;;6.90;99513.00;;;;5108870;28;20220;-76
2020/12/11 04:36:37;;;;;;;11.07;7.07;;;;;6.90;99492.00;;;;5100650;28;20256;-76
2020/12/11 04:39:04;;;;;;;9.55;6.07;;;;;6.90;99492.00;;;;5110825;28;20197;-77
2020/12/11 04:41:38;;;;;;;12.05;6.43;;;;;6.90;99485.00;;;;5105844;28;20667;-77
2020/12/11 04:44:07;;;;;;;11.68;7.20;;;;;6.90;99471.00;;;;5105201;28;21777;-77
2020/12/11 04:46:34;;;;;;;12.32;6.60;;;;;6.90;99464.00;;;;5110248;28;20229;-76
2020/12/11 04:49:02;;;;;;;9.50;5.97;;;;;6.90;99471.00;;;;5092725;28;20210;-77
2020/12/11 04:51:31;;;;;;;10.07;5.78;;;;;6.90;99474.00;;;;5090265;28;20240;-77
2020/12/11 04:53:59;;;;;;;10.90;6.65;;;;;6.90;99471.00;;;;5093663;28;20222;-77
2020/12/11 04:56:27;;;;;;;9.07;5.93;;;;;6.90;99460.00;;;;5091886;28;20202;-77
2020/12/11 04:58:55;;;;;;;10.30;6.47;;;;;6.90;99468.00;;;;5094109;28;20233;-76
2020/12/11 05:01:30;;;;;;;11.15;6.18;;;;;6.90;99466.00;;;;5078972;28;20582;-77
2020/12/11 05:03:58;;;;;;;9.93;6.20;;;;;6.90;99451.00;;;;5104621;28;20204;-76
2020/12/11 05:06:25;;;;;;;9.55;6.00;;;;;6.90;99446.00;;;;5109747;27;20209;-77
2020/12/11 05:09:10;;;;;;;11.60;7.18;;;;;6.80;99436.00;;;;5092183;28;20660;-77
2020/12/11 05:11:38;;;;;;;8.70;5.60;;;;;6.90;99427.00;;;;5093677;28;20225;-76
2020/12/11 05:14:05;;;;;;;11.77;6.88;;;;;6.90;99423.00;;;;5090279;28;20218;-77
2020/12/11 05:16:32;;;;;;;10.77;6.78;;;;;7.00;99416.00;;;;5097448;28;20205;-77
2020/12/11 05:19:05;;;;;;;11.02;6.30;;;;;7.00;99415.00;;;;5092844;28;20618;-77
2020/12/11 05:21:33;;;;;;;9.80;6.30;;;;;7.00;99395.00;;;;5090633;28;20289;-76
2020/12/11 05:24:01;;;;;;;10.95;6.60;;;;;7.10;99394.00;;;;5089386;28;20251;-77
2020/12/11 05:26:29;;;;;;;12.02;6.25;;;;;7.10;99392.00;;;;5097811;28;20190;-77
2020/12/11 05:28:58;;;;;;;9.93;6.43;;;;;7.10;99383.00;;;;5101265;28;20305;-77
2020/12/11 05:31:25;;;;;;;11.05;6.03;;;;;7.20;99382.00;;;;5088723;28;20567;-77
2020/12/11 05:34:09;;;;;;;10.45;6.43;;;;;7.20;99378.00;;;;5092200;28;20221;-77
2020/12/11 05:36:48;;;;;;;10.30;6.13;;;;;7.20;99366.00;;;;5104809;28;20567;-77
2020/12/11 05:39:19;;;;;;;10.57;6.72;;;;;7.30;99367.00;;;;5087239;28;20186;-77
2020/12/11 05:41:46;;;;;;;9.07;5.78;;;;;7.30;99373.00;;;;5093209;28;20988;-77
2020/12/11 05:44:31;;;;;;;10.52;6.05;;;;;7.30;99357.00;;;;5076587;28;20232;-77
2020/12/11 05:46:59;;;;;;;11.18;7.13;;;;;7.40;99347.00;;;;5099155;28;20190;-78
2020/12/11 05:49:30;;;;;;;11.80;7.22;;;;;7.40;99341.00;;;;5091820;28;20193;-77
2020/12/11 05:52:09;;;;;;;12.25;7.53;;;;;7.50;99341.00;;;;5083421;28;20202;-77
2020/12/11 05:54:42;;;;;;;10.95;6.65;;;;;7.50;99343.00;;;;5107107;28;20308;-77
2020/12/11 05:57:10;;;;;;;12.38;7.25;;;;;7.60;99347.00;;;;5106872;28;20213;-76
2020/12/11 05:59:38;;;;;;;10.70;6.10;;;;;7.60;99339.00;;;;5089494;28;20214;-77
2020/12/11 06:02:05;;;;;;;10.90;6.50;;;;;7.60;99331.00;;;;5085263;28;20687;-76
2020/12/11 06:04:32;;;;;;;10.32;6.57;;;;;7.70;99332.00;;;;5102789;28;20212;-77
2020/12/11 06:07:00;;;;;;;12.57;6.53;;;;;7.70;99332.00;;;;5090936;28;20202;-77
2020/12/11 06:09:35;;;;;;;12.30;7.32;;;;;7.70;99337.00;;;;5101140;28;20197;-77
2020/12/11 06:12:04;;;;;;;10.75;5.85;;;;;7.80;99333.00;;;;5098551;28;20259;-78
2020/12/11 06:14:50;;;;;;;10.45;6.80;;;;;7.80;99322.00;;;;5108949;28;20229;-77
2020/12/11 06:17:18;;;;;;;9.15;6.15;;;;;7.80;99320.00;;;;5088918;28;20205;-77
2020/12/11 06:19:46;;;;;;;12.25;7.63;;;;;7.90;99326.00;;;;5101937;28;20212;-77
2020/12/11 06:22:13;;;;;;;11.73;7.18;;;;;7.90;99323.00;;;;5088644;28;20205;-77
2020/12/11 06:24:40;;;;;;;11.35;6.53;;;;;7.90;99323.00;;;;5088214;28;20194;-77
2020/12/11 06:27:06;;;;;;;10.25;5.60;;;;;8.00;99317.00;;;;5088203;28;20209;-78
2020/12/11 06:29:39;;;;;;;10.90;6.80;;;;;8.00;99316.00;;;;5085819;28;20656;-78
2020/12/11 06:32:07;;;;;;;11.73;7.13;;;;;8.00;99320.00;;;;5080792;28;20221;-78
2020/12/11 06:34:35;;;;;;;10.10;5.75;;;;;8.00;99306.00;;;;5087251;28;20214;-77
2020/12/11 06:37:02;;;;;;;9.80;6.28;;;;;8.10;99308.00;;;;5095692;28;20206;-78
2020/12/11 06:39:43;;;;;;;10.18;6.68;;;;;8.00;99313.00;;;;5087265;28;20205;-78
2020/12/11 06:42:26;;;;;;;11.13;6.05;;;;;8.10;99312.00;;;;5075470;28;20980;-78
2020/12/11 06:44:53;;;;;;;9.95;6.53;;;;;8.10;99306.00;;;;5097962;28;20212;-77
2020/12/11 06:47:21;;;;;;;12.20;6.75;;;;;8.10;99300.00;;;;5106759;28;20201;-77
2020/12/11 06:50:07;;;;;;;13.20;7.10;;;;;8.00;99298.00;;;;5104694;28;20202;-78
2020/12/11 06:52:35;;;;;;;9.45;6.43;;;;;8.10;99289.00;;;;5093703;28;20202;-79
2020/12/11 06:55:02;;;;;;;10.65;6.28;;;;;8.20;99287.00;;;;5090602;28;20610;-79
2020/12/11 06:57:39;;;;;;;12.30;6.75;;;;;8.20;99281.00;;;;5106016;28;20197;-77
2020/12/11 07:00:24;;;;;;;9.48;5.85;;;;;8.10;99285.00;;;;5087368;28;20193;-79
2020/12/11 07:03:24;;;;;;;12.05;6.95;;;;;8.10;99277.00;;;;5103885;28;20212;-79
2020/12/11 07:06:10;;;;;;;9.32;6.25;;;;;8.10;99275.00;;;;5085985;28;20228;-80
2020/12/11 07:08:37;;;;;;;10.50;5.97;;;;;8.20;99270.00;;;;5087276;28;20190;-80
2020/12/11 07:11:24;;;;;;;12.93;7.53;;;;;8.20;99256.00;;;;5087454;28;20571;-79
2020/12/11 07:13:52;;;;;;;10.32;6.57;;;;;8.30;99265.00;;;;5088097;28;20217;-80
2020/12/11 07:16:19;;;;;;;11.55;6.22;;;;;8.30;99261.00;;;;5087657;28;20206;-79
2020/12/11 07:18:46;;;;;;;10.38;6.40;;;;;8.30;99255.00;;;;5087635;28;20202;-80
2020/12/11 07:21:14;;;;;;;10.05;6.43;;;;;8.30;99252.00;;;;5087847;28;20202;-79
2020/12/11 07:23:41;;;;;;;10.30;6.88;;;;;8.30;99245.00;;;;5087698;28;20281;-79
2020/12/11 07:26:08;;;;;;;10.88;6.75;;;;;8.30;99243.00;;;;5087110;28;20661;-79
2020/12/11 07:28:35;;;;;;;12.05;6.80;;;;;8.40;99238.00;;;;5087418;28;20210;-79
2020/12/11 07:31:02;;;;;;;10.18;5.78;;;;;8.30;99241.00;;;;5087015;28;20612;-80
2020/12/11 07:33:34;;;;;;;11.88;6.53;;;;;8.30;99238.00;;;;5086579;28;20206;-80
2020/12/11 07:36:04;;;;;;;9.68;6.38;;;;;8.30;99246.00;;;;5087661;28;20210;-80
2020/12/11 07:38:33;;;;;;;11.25;6.90;;;;;8.40;99234.00;;;;5087309;28;20572;-80
2020/12/11 07:41:03;;;;;;;10.82;6.47;;;;;8.40;99232.00;;;;5087487;28;20238;-79
2020/12/11 07:43:30;;;;;;;10.40;6.43;;;;;8.40;99231.00;;;;5087250;28;20221;-80
2020/12/11 07:45:57;;;;;;;10.45;6.85;;;;;8.40;99229.00;;;;5087736;28;20669;-80
2020/12/11 07:48:24;;;;;;;10.32;6.82;;;;;8.40;99239.00;;;;5090173;28;20213;-79
2020/12/11 07:50:51;;;;;;;8.88;6.03;;;;;8.40;99236.00;;;;5091885;28;20193;-79
2020/12/11 07:53:18;;;;;;;10.57;6.97;;;;;8.40;99235.00;;;;5093059;28;20579;-79
2020/12/11 07:55:45;;;;;;;8.60;5.47;;;;;8.40;99236.00;;;;5090327;28;20766;-79
2020/12/11 07:58:12;;;;;;;9.95;6.30;;;;;8.40;99231.00;;;;5099413;28;20233;-79
2020/12/11 08:00:39;;;;;;;11.02;6.85;;;;;8.40;99236.00;;;;5092571;28;20213;-80
2020/12/11 08:03:07;;;;;;;10.02;6.57;;;;;8.40;99234.00;;;;5091808;28;20198;-80
2020/12/11 08:05:35;;;;;;;10.35;6.40;;;;;8.50;99228.00;;;;5106529;28;20190;-78
2020/12/11 08:08:03;;;;;;;10.48;6.18;;;;;8.50;99223.00;;;;5097878;28;20205;-77
2020/12/11 08:10:41;;;;;;;9.95;6.75;;;;;8.40;99227.00;;;;5089290;28;20191;-79
2020/12/11 08:13:12;;;;;;;11.90;6.35;;;;;8.50;99215.00;;;;5090105;28;20201;-79
2020/12/11 08:15:39;;;;;;;11.27;6.45;;;;;8.50;99215.00;;;;5090825;28;20640;-79
2020/12/11 08:18:10;;;;;;;10.27;6.28;;;;;8.50;99208.00;;;;5094493;28;20207;-79
2020/12/11 08:20:48;;;;;;;9.50;6.28;;;;;8.40;99209.00;;;;5090851;28;20205;-76
2020/12/11 08:23:37;;;;;;;9.73;5.88;;;;;8.50;99203.00;;;;5090157;28;20213;-76
2020/12/11 08:26:17;;;;;;;12.82;7.32;;;;;8.50;99197.00;;;;5077445;28;20289;-77
2020/12/11 08:28:46;;;;;;;10.57;6.47;;;;;8.60;99193.00;;;;5090389;28;20197;-76
2020/12/11 08:31:21;;;;;;;8.23;5.32;;;;;8.60;99187.00;;;;5105365;28;20190;-77
2020/12/11 08:33:49;;;;;;;10.82;6.47;;;;;8.60;99199.00;;;;5108241;28;20757;-77
2020/12/11 08:36:24;;;;;;;11.15;6.85;;;;;8.60;99189.00;;;;5101594;28;20198;-76
2020/12/11 08:39:08;;;;;;;8.85;5.97;;;;;8.60;99186.00;;;;5090229;28;20213;-76
2020/12/11 08:41:37;;;;;;;9.45;5.70;;;;;8.60;99188.00;;;;5089527;28;20197;-77
2020/12/11 08:44:09;;;;;;;9.70;6.10;;;;;8.70;99180.00;;;;5099496;28;20644;-76
2020/12/11 08:46:45;;;;;;;8.32;5.65;;;;;8.70;99190.00;;;;5090175;28;20272;-77
2020/12/11 08:49:17;;;;;;;8.32;5.70;;;;;8.70;99184.00;;;;5090264;28;20198;-77
2020/12/11 08:51:44;;;;;;;10.10;6.22;;;;;8.70;99187.00;;;;5090500;28;20695;-76
2020/12/11 08:54:10;;;;;;;8.57;5.95;;;;;8.70;99185.00;;;;5089952;28;20226;-76
2020/12/11 08:56:42;;;;;;;11.57;6.65;;;;;8.80;99196.00;;;;5089395;28;21937;-76
2020/12/11 08:59:10;;;;;;;9.43;6.00;;;;;8.80;99180.00;;;;5098691;28;20248;-76
2020/12/11 09:01:39;;;;;;;10.18;6.40;;;;;8.80;99186.00;;;;5089292;28;20198;-76
2020/12/11 09:04:06;;;;;;;11.80;6.93;;;;;8.90;99186.00;;;;5087007;28;20198;-76
2020/12/11 09:06:33;;;;;;;10.30;6.95;;;;;8.90;99185.00;;;;5088817;28;20206;-76
2020/12/11 09:09:01;;;;;;;8.15;5.95;;;;;8.90;99184.00;;;;5090489;28;20210;-76
2020/12/11 09:11:28;;;;;;;9.60;5.65;;;;;8.90;99184.00;;;;5089748;28;20199;-77
2020/12/11 09:13:54;;;;;;;8.80;5.60;;;;;8.90;99186.00;;;;5109106;28;20594;-76
2020/12/11 09:16:22;;;;;;;11.20;7.05;;;;;9.00;99175.00;;;;5096727;28;20208;-76
2020/12/11 09:18:49;;;;;;;7.68;5.07;;;;;9.00;99174.00;;;;5089178;28;20194;-76
2020/12/11 09:21:15;;;;;;;10.10;6.70;;;;;9.00;99179.00;;;;5089076;28;20193;-76
2020/12/11 09:23:42;;;;;;;9.77;5.78;;;;;9.00;99174.00;;;;5104899;28;20209;-77
2020/12/11 09:26:09;;;;;;;8.80;6.00;;;;;9.10;99168.00;;;;5100703;28;20205;-77
2020/12/11 09:28:36;;;;;;;8.55;5.63;;;;;9.10;99164.00;;;;5096781;28;20593;-76
2020/12/11 09:31:03;;;;;;;9.68;6.20;;;;;9.10;99171.00;;;;5090776;28;20225;-75
2020/12/11 09:33:38;;;;;;;8.73;5.50;;;;;9.10;99166.00;;;;5097896;28;20228;-76
2020/12/11 09:36:05;;;;;;;7.60;4.78;;;;;9.20;99157.00;;;;5109731;28;20235;-77
2020/12/11 09:38:32;;;;;;;8.50;5.68;;;;;9.20;99154.00;;;;5109173;28;20198;-77
2020/12/11 09:41:01;;;;;;;9.60;5.88;;;;;9.20;99159.00;;;;5109903;28;20197;-77
2020/12/11 09:44:02;;;;;;;8.93;5.68;;;;;9.20;99162.00;;;;5093193;28;20213;-77
2020/12/11 09:46:36;;;;;;;8.40;5.32;;;;;9.20;99156.00;;;;5089270;28;20680;-77
2020/12/11 09:49:07;;;;;;;9.25;5.72;;;;;9.20;99147.00;;;;5089348;28;20238;-76
2020/12/11 09:52:00;;;;;;;8.40;6.15;;;;;9.30;99146.00;;;;5088719;28;20205;-77
2020/12/11 09:54:29;;;;;;;6.75;4.90;;;;;9.30;99141.00;;;;5098965;28;20233;-76
2020/12/11 09:56:56;;;;;;;10.20;6.57;;;;;9.30;99144.00;;;;5094028;28;20197;-76
2020/12/11 09:59:28;;;;;;;8.55;5.15;;;;;9.40;99146.00;;;;5084083;28;20226;-77
2020/12/11 10:02:06;;;;;;;7.60;5.18;;;;;9.40;99141.00;;;;5077724;28;20194;-76
2020/12/11 10:04:34;;;;;;;7.35;5.10;;;;;9.40;99147.00;;;;5082207;28;20688;-77
2020/12/11 10:07:00;;;;;;;7.28;5.43;;;;;9.50;99130.00;;;;5090498;28;20209;-78
2020/12/11 10:09:27;;;;;;;8.13;5.65;;;;;9.50;99135.00;;;;5087879;28;20671;-77
2020/12/11 10:11:54;;;;;;;9.98;6.50;;;;;9.50;99138.00;;;;5090916;28;20201;-77
2020/12/11 10:14:28;;;;;;;9.98;5.53;;;;;9.50;99137.00;;;;5090947;28;20730;-76
2020/12/11 10:16:55;;;;;;;8.77;5.63;;;;;9.60;99133.00;;;;5094741;28;20201;-77
2020/12/11 10:19:22;;;;;;;8.73;6.25;;;;;9.60;99128.00;;;;5097777;28;20663;-77
2020/12/11 10:21:50;;;;;;;9.82;6.80;;;;;9.60;99132.00;;;;5092525;28;20652;-77
2020/12/11 10:24:18;;;;;;;9.25;6.18;;;;;9.70;99126.00;;;;5091185;28;20217;-77
2020/12/11 10:26:45;;;;;;;9.43;5.95;;;;;9.70;99120.00;;;;5092410;28;20205;-77
2020/12/11 10:29:12;;;;;;;8.70;6.00;;;;;9.80;99121.00;;;;5092309;28;20202;-76
2020/12/11 10:31:41;;;;;;;9.68;6.70;;;;;9.80;99113.00;;;;5089004;28;20587;-76
2020/12/11 10:34:09;;;;;;;8.73;5.28;;;;;9.80;99117.00;;;;5094840;28;20256;-77
2020/12/11 10:36:36;;;;;;;10.88;6.80;;;;;9.80;99110.00;;;;5089866;28;20198;-77
2020/12/11 10:39:04;;;;;;;8.93;5.70;;;;;9.90;99113.00;;;;5097144;28;20213;-77
2020/12/11 10:41:31;;;;;;;10.20;6.20;;;;;9.90;99108.00;;;;5089556;28;20212;-76
2020/12/11 10:43:58;;;;;;;8.00;5.35;;;;;9.90;99104.00;;;;5092137;28;20194;-76
2020/12/11 10:46:24;;;;;;;9.07;5.68;;;;;10.00;99097.00;;;;5095037;28;20206;-77
2020/12/11 10:48:51;;;;;;;10.85;6.20;;;;;10.00;99101.00;;;;5097726;28;20202;-78
2020/12/11 10:51:19;;;;;;;8.73;5.93;;;;;10.00;99088.00;;;;5097965;28;20195;-76
2020/12/11 10:53:47;;;;;;;9.65;6.40;;;;;10.00;99090.00;;;;5105932;28;20577;-77
2020/12/11 10:56:19;;;;;;;8.05;5.38;;;;;10.00;99085.00;;;;5096991;28;20198;-76
2020/12/11 10:58:46;;;;;;;7.93;5.47;;;;;10.10;99089.00;;;;5095424;28;20229;-76
2020/12/11 11:01:13;;;;;;;8.80;5.45;;;;;10.10;99078.00;;;;5099030;28;20217;-76
2020/12/11 11:03:40;;;;;;;8.80;5.90;;;;;10.10;99079.00;;;;5099973;28;20210;-76
2020/12/11 11:06:12;;;;;;;8.00;5.38;;;;;10.10;99075.00;;;;5097577;28;20209;-76
2020/12/11 11:08:47;;;;;;;9.13;5.72;;;;;10.10;99073.00;;;;5095942;28;20229;-76
2020/12/11 11:11:21;;;;;;;7.72;5.60;;;;;10.00;99079.00;;;;5093066;28;20236;-77
2020/12/11 11:14:01;;;;;;;9.73;5.80;;;;;10.10;99073.00;;;;5102575;28;20200;-77
2020/12/11 11:16:43;;;;;;;7.35;5.03;;;;;10.10;99072.00;;;;5086938;28;20694;-77
2020/12/11 11:19:16;;;;;;;6.93;5.18;;;;;10.10;99060.00;;;;5086066;28;20282;-77
2020/12/11 11:24:48;;;;;;;8.57;5.68;;;;;10.10;99062.00;;;;5080571;28;20224;-76
2020/12/11 11:27:20;;;;;;;9.32;6.47;;;;;10.10;99056.00;;;;5089591;28;20643;-76
2020/12/11 11:29:47;;;;;;;9.30;5.68;;;;;10.10;99049.00;;;;5089725;28;20201;-76
2020/12/11 11:32:14;;;;;;;8.52;4.97;;;;;10.10;99038.00;;;;5090525;28;20209;-76
2020/12/11 11:34:40;;;;;;;9.02;5.85;;;;;10.10;99039.00;;;;5091960;28;20229;-77
2020/12/11 11:37:07;;;;;;;10.93;7.60;;;;;10.10;99034.00;;;;5091783;28;20213;-76
2020/12/11 11:39:34;;;;;;;7.63;4.95;;;;;10.20;99031.00;;;;5090953;28;20198;-76
2020/12/11 11:42:01;;;;;;;8.50;5.72;;;;;10.20;99025.00;;;;5091590;28;20257;-76
2020/12/11 11:44:39;;;;;;;8.73;6.18;;;;;10.20;99017.00;;;;5091664;28;20206;-77
2020/12/11 11:47:09;;;;;;;10.02;6.32;;;;;10.10;99019.00;;;;5091403;28;20220;-76
2020/12/11 11:49:40;;;;;;;9.40;6.07;;;;;10.20;99025.00;;;;5091279;28;20271;-77
2020/12/11 11:52:16;;;;;;;6.80;5.03;;;;;10.20;99025.00;;;;5091265;28;20275;-76
2020/12/11 11:54:42;;;;;;;6.88;4.95;;;;;10.20;99019.00;;;;5091315;28;20595;-76
2020/12/11 11:57:09;;;;;;;8.85;5.38;;;;;10.20;99015.00;;;;5090980;28;20213;-76
2020/12/11 11:59:37;;;;;;;8.55;5.68;;;;;10.20;99007.00;;;;5090782;28;20570;-77
2020/12/11 12:02:04;;;;;;;10.20;5.68;;;;;10.20;99004.00;;;;5091062;28;20205;-77
2020/12/11 12:04:30;;;;;;;8.10;5.47;;;;;10.20;99003.00;;;;5090913;28;20590;-77
2020/12/11 12:06:57;;;;;;;8.43;5.72;;;;;10.20;99003.00;;;;5091585;28;20201;-76
2020/12/11 12:09:24;;;;;;;7.57;5.53;;;;;10.20;98999.00;;;;5090646;28;20221;-77
2020/12/11 12:11:51;;;;;;;8.45;5.68;;;;;10.30;99003.00;;;;5090913;28;20209;-77
2020/12/11 12:14:17;;;;;;;8.07;5.43;;;;;10.20;98984.00;;;;5091306;28;20742;-78
2020/12/11 12:16:46;;;;;;;7.47;5.20;;;;;10.30;98987.00;;;;5089934;28;20206;-77
2020/12/11 12:19:17;;;;;;;7.65;5.28;;;;;10.30;98982.00;;;;5090497;28;20744;-78
2020/12/11 12:22:17;;;;;;;6.90;4.63;;;;;10.30;98979.00;;;;5090597;28;20280;-77
2020/12/11 12:30:08;;;;;;;8.05;5.53;;;;;10.30;98971.00;;;;5086834;28;20266;-77
2020/12/11 12:32:45;;;;;;;7.93;5.60;;;;;10.40;98964.00;;;;5089002;28;20208;-78
2020/12/11 12:35:24;;;;;;;9.63;6.03;;;;;10.40;98962.00;;;;5092832;28;20322;-78
2020/12/11 12:37:52;;;;;;;9.98;5.95;;;;;10.40;98959.00;;;;5105949;28;20284;-79
2020/12/11 12:40:36;;;;;;;8.68;5.95;;;;;10.40;98951.00;;;;5094814;28;20206;-77